createdAt,value
2019-02-24T00:00:45.427Z,51.70
2019-02-24T00:03:15.335Z,55.80
2019-02-24T00:06:44.215Z,55.47
2019-02-24T00:12:46.650Z,41.87
2019-02-24T00:15:23.297Z,41.23
2019-02-24T00:17:54.944Z,42.37
2019-02-24T00:20:46.186Z,40.17
2019-02-24T00:23:25.855Z,39.27
2019-02-24T00:26:06.824Z,40.40
2019-02-24T00:28:36.523Z,40.00
2019-02-24T00:31:06.251Z,41.93
2019-02-24T00:33:36.024Z,38.60
2019-02-24T00:36:05.809Z,44.33
2019-02-24T00:38:35.581Z,39.77
2019-02-24T00:41:05.301Z,41.03
2019-02-24T00:43:34.958Z,36.27
2019-02-24T00:46:04.670Z,36.87
2019-02-24T00:48:34.387Z,36.90
2019-02-24T00:51:04.109Z,37.53
2019-02-24T00:53:33.842Z,36.17
2019-02-24T00:56:03.528Z,36.43
2019-02-24T00:58:33.207Z,32.77
2019-02-24T01:01:02.927Z,33.17
2019-02-24T01:03:32.705Z,30.33
2019-02-24T01:06:05.540Z,30.60
2019-02-24T01:08:35.324Z,29.23
2019-02-24T01:11:04.982Z,30.73
2019-02-24T01:13:34.735Z,25.23
2019-02-24T01:16:04.434Z,26.17
2019-02-24T01:18:34.159Z,29.37
2019-02-24T01:31:30.477Z,26.53
2019-02-24T01:31:49.708Z,28.57
2019-02-24T01:34:07.661Z,26.57
2019-02-24T01:39:57.194Z,24.40
2019-02-24T01:42:58.633Z,24.67
2019-02-24T01:48:55.194Z,21.80
2019-02-24T01:52:00.088Z,22.97
2019-02-24T01:54:22.383Z,24.87
2019-02-24T01:56:52.390Z,25.67
2019-02-24T01:59:24.159Z,24.93
2019-02-24T02:02:01.497Z,23.87
2019-02-24T02:04:31.291Z,23.47
2019-02-24T02:07:00.943Z,25.47
2019-02-24T02:09:30.615Z,24.37
2019-02-24T02:12:00.294Z,22.43
2019-02-24T02:14:29.950Z,22.87
2019-02-24T02:16:59.732Z,22.50
2019-02-24T02:19:29.456Z,21.53
2019-02-24T02:21:59.133Z,19.80
2019-02-24T02:24:28.818Z,20.37
2019-02-24T02:26:58.566Z,20.53
2019-02-24T02:29:29.121Z,20.43
2019-02-24T02:31:58.765Z,21.27
2019-02-24T02:34:28.463Z,20.23
2019-02-24T02:36:58.114Z,20.37
2019-02-24T02:39:27.818Z,20.23
2019-02-24T02:41:57.493Z,21.43
2019-02-24T02:44:27.250Z,20.77
2019-02-24T02:46:57.398Z,20.27
2019-02-24T02:49:27.043Z,20.27
2019-02-24T02:51:56.773Z,20.30
2019-02-24T02:54:26.401Z,18.93
2019-02-24T02:56:56.155Z,18.57
2019-02-24T02:59:25.834Z,20.10
2019-02-24T03:01:55.634Z,21.03
2019-02-24T03:04:25.450Z,19.97
2019-02-24T03:07:02.747Z,20.10
2019-02-24T03:09:32.524Z,21.33
2019-02-24T03:12:02.294Z,22.83
2019-02-24T03:14:32.065Z,24.27
2019-02-24T03:17:01.937Z,21.83
2019-02-24T03:19:31.718Z,23.83
2019-02-24T03:22:01.467Z,23.63
2019-02-24T03:24:31.228Z,24.43
2019-02-24T03:27:00.971Z,26.13
2019-02-24T03:29:30.763Z,26.03
2019-02-24T03:32:00.559Z,26.97
2019-02-24T03:34:30.342Z,26.13
2019-02-24T03:37:00.099Z,22.80
2019-02-24T03:39:29.867Z,25.27
2019-02-24T03:41:59.631Z,25.17
2019-02-24T03:44:29.371Z,24.60
2019-02-24T03:46:59.149Z,24.80
2019-02-24T03:49:29.067Z,28.20
2019-02-24T03:51:58.775Z,24.70
2019-02-24T03:54:28.425Z,24.10
2019-02-24T03:56:58.185Z,25.30
2019-02-24T03:59:27.949Z,26.70
2019-02-24T04:01:57.671Z,27.80
2019-02-24T04:04:27.390Z,27.40
2019-02-24T04:06:57.114Z,26.77
2019-02-24T04:09:26.787Z,27.60
2019-02-24T04:11:56.467Z,26.83
2019-02-24T04:14:26.172Z,26.93
2019-02-24T04:16:56.322Z,26.07
2019-02-24T04:19:26.026Z,25.60
2019-02-24T04:21:55.709Z,26.43
2019-02-24T04:24:25.410Z,28.07
2019-02-24T04:26:55.157Z,28.17
2019-02-24T04:29:25.385Z,26.73
2019-02-24T04:31:55.459Z,29.93
2019-02-24T04:34:25.252Z,30.53
2019-02-24T04:36:55.197Z,28.00
2019-02-24T04:39:25.012Z,30.93
2019-02-24T04:41:54.859Z,30.57
2019-02-24T04:44:24.804Z,32.03
2019-02-24T04:46:54.672Z,31.03
2019-02-24T04:49:24.572Z,29.80
2019-02-24T04:51:54.351Z,66.20
2019-02-24T04:54:24.224Z,110.17
2019-02-24T04:56:53.984Z,114.77
2019-02-24T04:59:23.802Z,117.43
2019-02-24T05:01:53.619Z,46.03
2019-02-24T05:04:23.438Z,29.00
2019-02-24T05:06:53.218Z,24.93
2019-02-24T05:09:22.931Z,29.90
2019-02-24T05:11:52.721Z,40.07
2019-02-24T05:14:22.388Z,39.13
2019-02-24T05:16:52.168Z,41.83
2019-02-24T05:19:21.881Z,43.47
2019-02-24T05:21:51.651Z,53.90
2019-02-24T05:24:21.428Z,43.00
2019-02-24T05:26:51.188Z,31.77
2019-02-24T05:29:21.030Z,26.27
2019-02-24T05:31:50.928Z,23.57
2019-02-24T05:34:20.912Z,23.83
2019-02-24T05:36:50.871Z,24.00
2019-02-24T05:39:20.661Z,22.53
2019-02-24T05:41:50.365Z,23.87
2019-02-24T05:44:20.084Z,23.73
2019-02-24T05:46:49.808Z,22.83
2019-02-24T05:49:19.539Z,25.40
2019-02-24T05:51:50.320Z,23.97
2019-02-24T05:54:21.817Z,29.73
2019-02-24T05:56:53.018Z,29.33
2019-02-24T05:59:23.032Z,23.90
2019-02-24T06:01:52.867Z,21.37
2019-02-24T06:04:22.672Z,26.40
2019-02-24T06:06:52.593Z,20.80
2019-02-24T06:09:22.534Z,23.00
2019-02-24T06:11:52.278Z,21.07
2019-02-24T06:14:22.001Z,21.17
2019-02-24T06:16:51.767Z,22.60
2019-02-24T06:19:21.497Z,22.33
2019-02-24T06:21:51.268Z,21.17
2019-02-24T06:24:21.017Z,20.80
2019-02-24T06:26:50.727Z,20.60
2019-02-24T06:29:20.438Z,21.20
2019-02-24T06:31:50.157Z,21.60
2019-02-24T06:34:20.944Z,21.23
2019-02-24T06:36:50.658Z,20.20
2019-02-24T06:39:20.430Z,22.50
2019-02-24T06:41:50.146Z,24.93
2019-02-24T06:44:19.904Z,24.57
2019-02-24T06:46:49.651Z,22.97
2019-02-24T06:49:19.425Z,24.77
2019-02-24T06:51:49.182Z,19.63
2019-02-24T06:54:18.939Z,22.03
2019-02-24T06:56:48.690Z,22.57
2019-02-24T06:59:18.412Z,27.13
2019-02-24T07:01:48.191Z,26.00
2019-02-24T07:04:17.899Z,22.40
2019-02-24T07:06:47.575Z,23.50
2019-02-24T07:09:19.089Z,22.83
2019-02-24T07:11:48.615Z,23.93
2019-02-24T07:14:18.318Z,23.17
2019-02-24T07:16:48.033Z,25.07
2019-02-24T07:19:17.789Z,40.20
2019-02-24T07:21:47.475Z,27.43
2019-02-24T07:24:17.122Z,22.07
2019-02-24T07:26:46.824Z,23.47
2019-02-24T07:29:16.489Z,22.37
2019-02-24T07:31:47.727Z,28.83
2019-02-24T07:34:17.431Z,25.67
2019-02-24T07:36:51.557Z,24.40
2019-02-24T07:39:21.403Z,39.03
2019-02-24T07:41:51.201Z,25.50
2019-02-24T07:44:20.932Z,24.27
2019-02-24T07:46:50.633Z,23.33
2019-02-24T07:49:20.472Z,27.90
2019-02-24T07:51:50.181Z,23.60
2019-02-24T07:54:19.992Z,26.43
2019-02-24T07:56:49.757Z,33.83
2019-02-24T07:59:19.543Z,29.80
2019-02-24T08:01:49.207Z,39.60
2019-02-24T08:04:18.961Z,34.83
2019-02-24T08:06:48.663Z,25.20
2019-02-24T08:09:18.366Z,28.33
2019-02-24T08:11:48.065Z,32.77
2019-02-24T08:14:17.789Z,29.73
2019-02-24T08:16:49.854Z,25.87
2019-02-24T08:19:19.504Z,28.40
2019-02-24T08:21:49.218Z,26.83
2019-02-24T08:24:18.855Z,27.97
2019-02-24T08:26:48.542Z,28.13
2019-02-24T08:29:18.227Z,31.97
2019-02-24T08:31:47.877Z,47.13
2019-02-24T08:34:17.587Z,63.13
2019-02-24T08:36:47.321Z,58.60
2019-02-24T08:39:17.020Z,50.33
2019-02-24T08:41:46.747Z,63.77
2019-02-24T08:44:16.502Z,92.30
2019-02-24T08:46:46.191Z,50.63
2019-02-24T08:49:15.887Z,74.20
2019-02-24T08:51:45.571Z,56.07
2019-02-24T08:54:15.224Z,41.40
2019-02-24T08:56:44.941Z,33.87
2019-02-24T08:59:14.609Z,39.33
2019-02-24T09:01:44.307Z,37.10
2019-02-24T09:04:13.988Z,31.77
2019-02-24T09:06:43.702Z,29.00
2019-02-24T09:09:13.439Z,22.33
2019-02-24T09:11:43.126Z,25.53
2019-02-24T09:14:12.877Z,31.20
2019-02-24T09:16:42.619Z,21.60
2019-02-24T09:19:12.412Z,24.13
2019-02-24T09:21:42.136Z,21.03
2019-02-24T09:24:12.074Z,23.50
2019-02-24T09:26:41.816Z,27.53
2019-02-24T09:29:11.543Z,23.40
2019-02-24T09:31:42.858Z,19.23
2019-02-24T09:34:12.612Z,19.47
2019-02-24T09:36:42.344Z,19.60
2019-02-24T09:39:12.193Z,23.93
2019-02-24T09:41:41.983Z,24.10
2019-02-24T09:44:11.772Z,17.23
2019-02-24T09:46:41.639Z,19.80
2019-02-24T09:49:11.358Z,22.63
2019-02-24T09:51:41.121Z,19.00
2019-02-24T09:54:10.911Z,19.53
2019-02-24T09:56:43.660Z,19.27
2019-02-24T09:59:13.477Z,23.23
2019-02-24T10:01:43.271Z,26.47
2019-02-24T10:04:12.968Z,26.40
2019-02-24T10:06:46.366Z,31.73
2019-02-24T10:09:18.610Z,33.00
2019-02-24T10:11:57.095Z,31.40
2019-02-24T10:17:53.798Z,32.73
2019-02-24T10:30:42.428Z,25.57
2019-02-24T10:40:38.210Z,20.73
2019-02-24T10:42:59.112Z,22.67
2019-02-24T10:45:28.980Z,19.60
2019-02-24T10:47:58.895Z,19.93
2019-02-24T10:50:28.660Z,18.97
2019-02-24T10:52:58.451Z,20.83
2019-02-24T10:55:28.179Z,21.47
2019-02-24T10:57:57.943Z,30.40
2019-02-24T11:00:27.712Z,21.20
2019-02-24T11:02:57.494Z,19.63
2019-02-24T11:05:27.273Z,34.10
2019-02-24T11:07:57.074Z,18.27
2019-02-24T11:10:26.967Z,23.30
2019-02-24T11:12:56.796Z,20.47
2019-02-24T11:15:26.556Z,15.57
2019-02-24T11:17:56.381Z,18.40
2019-02-24T11:20:27.844Z,12.33
2019-02-24T11:22:57.689Z,11.23
2019-02-24T11:25:28.463Z,13.90
2019-02-24T11:28:01.273Z,23.20
2019-02-24T11:30:32.703Z,19.20
2019-02-24T11:33:03.712Z,13.07
2019-02-24T11:35:36.369Z,28.10
2019-02-24T11:38:06.315Z,16.50
2019-02-24T11:40:38.831Z,18.83
2019-02-24T11:43:10.237Z,15.93
2019-02-24T11:45:40.002Z,16.27
2019-02-24T11:48:09.777Z,21.53
2019-02-24T11:50:39.579Z,17.47
2019-02-24T11:53:09.395Z,16.80
2019-02-24T11:55:39.177Z,15.70
2019-02-24T11:58:08.947Z,18.40
2019-02-24T12:00:40.191Z,12.27
2019-02-24T12:03:10.481Z,15.67
2019-02-24T12:05:40.501Z,10.47
2019-02-24T12:08:11.876Z,13.60
2019-02-24T12:10:41.655Z,17.37
2019-02-24T12:13:11.393Z,14.10
2019-02-24T12:15:41.185Z,12.50
2019-02-24T12:18:11.008Z,14.53
2019-02-24T12:20:40.858Z,21.53
2019-02-24T12:23:12.248Z,19.43
2019-02-24T12:25:42.049Z,12.23
2019-02-24T12:28:32.061Z,12.50
2019-02-24T12:31:06.248Z,13.13
2019-02-24T12:33:35.525Z,18.47
2019-02-24T12:36:14.367Z,15.27
2019-02-24T12:38:50.525Z,12.47
2019-02-24T12:41:26.878Z,13.50
2019-02-24T12:44:04.185Z,11.93
2019-02-24T12:46:44.363Z,16.63
2019-02-24T12:49:20.210Z,12.67
2019-02-24T12:51:52.932Z,16.23
2019-02-24T12:54:31.655Z,13.57
2019-02-24T12:57:15.688Z,15.97
2019-02-24T12:59:49.234Z,16.67
2019-02-24T13:02:27.696Z,27.83
2019-02-24T13:05:07.974Z,14.23
2019-02-24T13:07:46.100Z,15.13
2019-02-24T13:10:18.271Z,16.13
2019-02-24T13:12:51.458Z,17.93
2019-02-24T13:15:21.768Z,32.80
2019-02-24T13:17:58.749Z,38.73
2019-02-24T13:20:48.208Z,34.67
2019-02-24T13:23:17.932Z,10.03
2019-02-24T13:25:47.667Z,14.80
2019-02-24T13:28:17.711Z,23.83
2019-02-24T13:30:53.275Z,29.53
2019-02-24T13:41:29.713Z,13.37
2019-02-24T13:43:32.615Z,37.57
2019-02-24T13:49:13.795Z,15.10
2019-02-24T13:51:48.963Z,18.33
2019-02-24T13:54:19.626Z,11.63
2019-02-24T13:56:56.415Z,20.83
2019-02-24T13:59:28.416Z,8.90
2019-02-24T14:02:13.216Z,7.43
2019-02-24T14:04:45.937Z,9.23
2019-02-24T14:07:17.537Z,9.53
2019-02-24T14:09:47.854Z,8.47
2019-02-24T14:12:20.086Z,6.03
2019-02-24T14:18:22.180Z,4.80
2019-02-24T14:20:52.040Z,11.60
2019-02-24T14:23:23.954Z,7.30
2019-02-24T14:25:53.757Z,5.27
2019-02-24T14:28:23.645Z,8.10
2019-02-24T14:30:53.529Z,8.53
2019-02-24T14:33:23.309Z,8.47
2019-02-24T14:35:53.031Z,13.10
2019-02-24T14:38:24.865Z,5.80
2019-02-24T14:40:57.934Z,7.40
2019-02-24T14:43:27.809Z,14.87
2019-02-24T14:45:58.581Z,9.17
2019-02-24T14:48:28.423Z,7.67
2019-02-24T14:51:00.016Z,17.17
2019-02-24T14:53:39.052Z,11.97
2019-02-24T14:56:13.781Z,14.07
2019-02-24T14:58:44.787Z,8.30
2019-02-24T15:01:14.609Z,9.17
2019-02-24T15:03:47.265Z,11.63
2019-02-24T15:06:18.981Z,30.30
2019-02-24T15:11:41.795Z,45.40
2019-02-24T15:14:13.219Z,42.87
2019-02-24T15:17:11.481Z,67.73
2019-02-24T15:19:47.312Z,15.23
2019-02-24T15:22:24.505Z,29.13
2019-02-24T15:24:58.367Z,23.77
2019-02-24T15:27:28.378Z,11.63
2019-02-24T15:29:58.170Z,8.60
2019-02-24T15:32:27.948Z,33.03
2019-02-24T15:34:57.696Z,41.67
2019-02-24T15:37:27.803Z,51.27
2019-02-24T15:40:04.024Z,37.57
2019-02-24T15:42:53.597Z,45.00
2019-02-24T15:45:32.261Z,34.53
2019-02-24T15:48:05.736Z,38.57
2019-02-24T15:50:35.506Z,21.23
2019-02-24T15:53:05.456Z,32.23
2019-02-24T15:55:35.375Z,34.53
2019-02-24T15:58:05.274Z,31.43
2019-02-24T16:01:11.213Z,15.77
2019-02-24T16:04:26.772Z,54.63
2019-02-24T16:07:11.108Z,40.50
2019-02-24T20:18:51.845Z,59.93
2019-02-24T20:21:33.407Z,54.53
2019-02-24T20:31:36.583Z,100.50
2019-02-24T20:32:17.593Z,93.00
2019-02-24T20:41:09.354Z,60.50
2019-02-24T20:43:39.354Z,47.77
2019-02-24T21:13:19.074Z,65.87
2019-02-24T21:32:33.900Z,84.77
2019-02-24T22:03:28.720Z,45.20
2019-02-24T22:05:58.478Z,39.90
2019-02-24T22:08:28.130Z,41.63
2019-02-24T22:10:57.843Z,39.20
2019-02-24T22:14:05.261Z,39.73
2019-02-24T22:16:38.191Z,37.90
2019-02-24T22:19:08.055Z,37.43
2019-02-24T22:21:38.053Z,35.23
2019-02-24T22:24:07.895Z,34.30
2019-02-24T22:26:38.022Z,36.07
2019-02-24T22:29:07.669Z,34.17
2019-02-24T22:31:37.367Z,32.97
2019-02-24T22:34:07.118Z,34.37
2019-02-24T22:36:36.842Z,36.33
2019-02-24T22:39:06.772Z,36.33
2019-02-24T22:41:36.599Z,36.93
2019-02-24T22:44:06.354Z,34.20
2019-02-24T22:46:36.119Z,31.23
2019-02-24T22:49:07.158Z,30.00
2019-02-24T22:51:46.881Z,36.13
2019-02-24T22:54:16.688Z,31.50
2019-02-24T22:56:54.514Z,35.63
2019-02-24T22:59:24.757Z,33.13
2019-02-24T23:01:56.000Z,32.10
2019-02-24T23:04:25.740Z,32.57
2019-02-24T23:06:55.477Z,29.90
2019-02-24T23:09:25.201Z,32.97
2019-02-24T23:11:54.881Z,33.47
2019-02-24T23:14:24.636Z,32.43
2019-02-24T23:16:54.421Z,29.33
2019-02-24T23:19:24.067Z,24.13
2019-02-24T23:21:53.776Z,23.50
2019-02-24T23:24:24.196Z,25.03
2019-02-24T23:26:54.120Z,23.40
2019-02-24T23:29:23.830Z,23.10
2019-02-24T23:31:53.541Z,24.90
2019-02-24T23:34:23.195Z,22.80
2019-02-24T23:36:52.874Z,20.17
2019-02-24T23:39:22.567Z,19.60
2019-02-24T23:41:52.313Z,19.73
2019-02-24T23:44:22.002Z,18.93
2019-02-24T23:46:51.727Z,18.00
2019-02-24T23:49:21.398Z,20.20
2019-02-24T23:51:51.115Z,21.20
2019-02-24T23:54:20.862Z,20.90
2019-02-24T23:56:50.698Z,17.90
2019-02-24T23:59:20.451Z,18.63
